Portada
METAR-TAF:

METAR-TAF

Aeropuertos :

Aeropuerto Internacional de la Región de Murcia

Murcia, Corvera, España

latitud: 37-48-13N, longitud: 1-07-27W, altitud: 193 m

Observación

El informe se hizo hace 27 minutos, a las 08:30 UTC
Viento 10 kt del norte
Temperatura 21°C
Humedad 40%
Presión 1018 hPa
Visibilidad 10 km o más
sin nubes por debajo de 1500 m y sin presencia de cumulonimbus.

METAR: LEMI 130830Z 35010KT CAVOK 21/07 Q1018

Hora: 10:57 (08:57 UTC)


TAF: falta

Observaciones y pronósticos meteorológicos de más de 4000 aeropuertos (mensajes METAR y TAF).

Los puntos amarillos y rojos representan las estaciones disponibles.

Ponga el ratón en el punto deseado para ver el nombre de la estación.

Haga clic para ver las observaciones y los pronósticos meteorológicos.

Para cambiar el mapa : haga clic en los botones verdes con una cruz de color negro para hacer un zoom, en el botón verde con un guión para alejar o en las flechas verdes para mapas adyacentes.


METAR-TAF: